createdAt,value
2024-02-10T00:00:41.048Z,19.4286
2024-02-10T00:01:41.166Z,20.2143
2024-02-10T00:02:41.052Z,19.7143
2024-02-10T00:03:41.050Z,19.6429
2024-02-10T00:04:41.208Z,19.8571
2024-02-10T00:05:41.140Z,19.8571
2024-02-10T00:06:41.168Z,19.6429
2024-02-10T00:07:41.118Z,20.2143
2024-02-10T00:08:41.136Z,20
2024-02-10T00:09:41.108Z,20.2143
2024-02-10T00:10:41.157Z,20.1429
2024-02-10T00:11:41.119Z,20.1429
2024-02-10T00:12:41.121Z,21.3571
2024-02-10T00:13:41.431Z,21.4286
2024-02-10T00:14:41.134Z,20.7143
2024-02-10T00:15:41.137Z,20.5
2024-02-10T00:16:41.191Z,21
2024-02-10T00:17:41.167Z,20.2143
2024-02-10T00:18:41.208Z,20.4286
2024-02-10T00:19:41.193Z,21.3571
2024-02-10T00:20:41.177Z,20.3571
2024-02-10T00:21:41.166Z,20.2143
2024-02-10T00:22:41.251Z,20.7143
2024-02-10T00:23:41.184Z,20.5
2024-02-10T00:24:41.215Z,21.4286
2024-02-10T00:25:41.219Z,20.8571
2024-02-10T00:26:41.219Z,19.8571
2024-02-10T00:27:41.210Z,20.1429
2024-02-10T00:28:41.299Z,20.2143
2024-02-10T00:29:41.221Z,19.8571
2024-02-10T00:30:41.226Z,21
2024-02-10T00:31:41.259Z,20.5
2024-02-10T00:32:41.290Z,21.2143
2024-02-10T00:33:41.256Z,20.8571
2024-02-10T00:34:41.583Z,21.8571
2024-02-10T00:35:41.256Z,20.1429
2024-02-10T00:36:41.267Z,20.6429
2024-02-10T00:37:41.325Z,20.8571
2024-02-10T00:38:41.286Z,21
2024-02-10T00:39:41.293Z,20.9286
2024-02-10T00:40:41.341Z,21.3571
2024-02-10T00:41:41.317Z,21
2024-02-10T00:42:41.346Z,21.6429
2024-02-10T00:43:41.365Z,21.7143
2024-02-10T00:44:41.331Z,20.8571
2024-02-10T00:45:41.438Z,20.6429
2024-02-10T00:46:41.357Z,21.6429
2024-02-10T00:47:41.391Z,21.5
2024-02-10T00:48:41.370Z,22.1429
2024-02-10T00:49:41.398Z,22.2143
2024-02-10T00:50:41.384Z,21.1429
2024-02-10T00:51:41.394Z,21.7143
2024-02-10T00:52:41.572Z,21
2024-02-10T00:53:41.772Z,20.9286
2024-02-10T00:54:41.428Z,21.5
2024-02-10T00:55:41.499Z,21.7143
2024-02-10T00:56:41.437Z,21.8571
2024-02-10T00:57:41.445Z,21
2024-02-10T00:58:41.506Z,21.2143
2024-02-10T00:59:41.470Z,19.4286
2024-02-10T01:00:41.477Z,21.6429
2024-02-10T01:01:41.487Z,20.7143
2024-02-10T01:02:41.468Z,20.4286
2024-02-10T01:03:41.514Z,20.9286
2024-02-10T01:04:41.594Z,20.6429
2024-02-10T01:05:41.537Z,20.4286
2024-02-10T01:06:41.569Z,21
2024-02-10T01:07:41.541Z,22.7143
2024-02-10T01:08:41.530Z,21.2143
2024-02-10T01:09:41.555Z,20.8571
2024-02-10T01:10:41.582Z,21.1429
2024-02-10T01:11:41.553Z,22
2024-02-10T01:12:41.568Z,20.7143
2024-02-10T01:13:41.617Z,20.6429
2024-02-10T01:14:41.565Z,21.1429
2024-02-10T01:15:41.569Z,22
2024-02-10T01:16:41.596Z,21.6429
2024-02-10T01:17:41.584Z,20.8571
2024-02-10T01:18:41.668Z,21.5
2024-02-10T01:19:41.641Z,21.1429
2024-02-10T01:20:41.611Z,20
2024-02-10T01:21:41.863Z,21.1429
2024-02-10T01:22:41.700Z,20.7143
2024-02-10T01:23:41.648Z,20.5
2024-02-10T01:24:41.655Z,21.7143
2024-02-10T01:25:41.712Z,20.9286
2024-02-10T01:26:41.701Z,21.9286
2024-02-10T01:27:41.662Z,20.4286
2024-02-10T01:28:41.705Z,21.6429
2024-02-10T01:29:41.670Z,21.2143
2024-02-10T01:30:41.694Z,21.2143
2024-02-10T01:31:41.747Z,21.2143
2024-02-10T01:32:41.734Z,20.8571
2024-02-10T01:33:41.778Z,21
2024-02-10T01:34:41.764Z,20.7143
2024-02-10T01:35:41.733Z,20.4286
2024-02-10T01:36:41.735Z,20.1429
2024-02-10T01:37:41.812Z,21
2024-02-10T01:38:41.747Z,20.8571
2024-02-10T01:39:41.758Z,20.3571
2024-02-10T01:40:41.798Z,20.1429
2024-02-10T01:41:41.766Z,20.1429
2024-02-10T01:42:41.864Z,20.6429
2024-02-10T01:43:41.798Z,20.9286
2024-02-10T01:44:41.775Z,20.3571
2024-02-10T01:45:41.788Z,19.7143
2024-02-10T01:46:41.836Z,21.5
2024-02-10T01:47:41.832Z,21.1429
2024-02-10T01:48:41.867Z,20.6429
2024-02-10T01:49:41.916Z,21.1429
2024-02-10T01:50:41.985Z,21.4286
2024-02-10T01:51:41.876Z,20.8571
2024-02-10T01:52:42.019Z,21.4286
2024-02-10T01:53:41.863Z,21.3571
2024-02-10T01:54:41.857Z,21.1429
2024-02-10T01:55:41.920Z,19.7143
2024-02-10T01:56:41.863Z,21.8571
2024-02-10T01:57:41.874Z,21.1429
2024-02-10T01:58:41.994Z,20.6429
2024-02-10T01:59:41.900Z,21.2143
2024-02-10T02:00:41.918Z,19.9286
2024-02-10T02:01:41.938Z,20.7143
2024-02-10T02:02:41.928Z,20.8571
2024-02-10T02:03:43.644Z,21.7143
2024-02-10T02:04:41.972Z,20.7143
2024-02-10T02:05:41.977Z,20.5
2024-02-10T02:06:41.952Z,21.1429
2024-02-10T02:07:41.978Z,21.2143
2024-02-10T02:08:41.969Z,20.9286
2024-02-10T02:09:41.977Z,19.5
2024-02-10T02:10:42.005Z,19.5
2024-02-10T02:11:41.983Z,21.2143
2024-02-10T02:12:41.994Z,20.4286
2024-02-10T02:13:42.017Z,19.1429
2024-02-10T02:14:42.004Z,19.4286
2024-02-10T02:15:42.009Z,20.8571
2024-02-10T02:16:42.018Z,20.1429
2024-02-10T02:17:42.049Z,20.5
2024-02-10T02:18:42.033Z,19.1429
2024-02-10T02:19:42.251Z,21.2143
2024-02-10T02:20:42.052Z,20.4286
2024-02-10T02:21:42.068Z,22.1429
2024-02-10T02:22:42.058Z,20.8571
2024-02-10T02:23:42.072Z,20.8571
2024-02-10T02:24:42.068Z,20.7143
2024-02-10T02:25:42.143Z,19
2024-02-10T02:26:42.092Z,19.7143
2024-02-10T02:27:42.104Z,19.5
2024-02-10T02:28:42.153Z,20.8571
2024-02-10T02:29:42.126Z,19.7143
2024-02-10T02:30:42.140Z,20.2143
2024-02-10T02:31:42.152Z,19.4286
2024-02-10T02:32:42.215Z,19.5
2024-02-10T02:33:42.176Z,20.2143
2024-02-10T02:34:42.335Z,21.1429
2024-02-10T02:35:42.195Z,18.6429
2024-02-10T02:36:42.181Z,20.1429
2024-02-10T02:37:42.860Z,20.4286
2024-02-10T02:38:42.193Z,19.4286
2024-02-10T02:39:42.193Z,19.6429
2024-02-10T02:40:42.301Z,19.5
2024-02-10T02:41:42.205Z,20.7143
2024-02-10T02:42:42.240Z,19.6429
2024-02-10T02:43:42.298Z,19.6429
2024-02-10T02:44:42.240Z,19.1429
2024-02-10T02:45:42.245Z,19.8571
2024-02-10T02:46:42.264Z,19.7143
2024-02-10T02:47:42.286Z,19.3571
2024-02-10T02:48:42.355Z,19.4286
2024-02-10T02:49:42.305Z,19.8571
2024-02-10T02:50:42.268Z,19.9286
2024-02-10T02:51:42.262Z,20.3571
2024-02-10T02:52:42.340Z,19.2143
2024-02-10T02:53:42.282Z,19.9286
2024-02-10T02:54:42.286Z,20
2024-02-10T02:55:42.321Z,19.8571
2024-02-10T02:56:42.315Z,19.3571
2024-02-10T02:57:42.326Z,19.4286
2024-02-10T02:58:42.357Z,19.5
2024-02-10T02:59:42.360Z,20
2024-02-10T03:00:42.622Z,20.4286
2024-02-10T03:01:42.404Z,20.4286
2024-02-10T03:02:42.824Z,19.7143
2024-02-10T03:03:42.396Z,19.4286
2024-02-10T03:04:42.410Z,20.3571
2024-02-10T03:05:42.384Z,19.5
2024-02-10T03:06:42.489Z,19.2143
2024-02-10T03:07:42.434Z,20.1429
2024-02-10T03:08:42.388Z,19.7143
2024-02-10T03:09:42.402Z,18.5
2024-02-10T03:10:42.469Z,18.4286
2024-02-10T03:11:42.424Z,18.8571
2024-02-10T03:12:42.425Z,19.9286
2024-02-10T03:13:42.489Z,20.2143
2024-02-10T03:14:42.441Z,19.8571
2024-02-10T03:15:42.450Z,20.3571
2024-02-10T03:16:42.587Z,19.6429
2024-02-10T03:17:42.506Z,20.2143
2024-02-10T03:18:42.503Z,19.9286
2024-02-10T03:19:42.495Z,20.1429
2024-02-10T03:20:42.478Z,20.1429
2024-02-10T03:21:42.488Z,19.1429
2024-02-10T03:22:42.502Z,19.6429
2024-02-10T03:23:42.501Z,19.9286
2024-02-10T03:24:42.528Z,20
2024-02-10T03:25:42.614Z,19.8571
2024-02-10T03:26:42.541Z,19.3571
2024-02-10T03:27:42.546Z,19.4286
2024-02-10T03:28:42.632Z,18.6429
2024-02-10T03:29:42.547Z,20.2143
2024-02-10T03:30:42.566Z,19.9286
2024-02-10T03:31:42.625Z,19.7143
2024-02-10T03:32:42.586Z,20.2143
2024-02-10T03:33:42.641Z,19.7143
2024-02-10T03:34:42.691Z,19.7143
2024-02-10T03:35:42.648Z,19.6429
2024-02-10T03:36:42.593Z,19.5
2024-02-10T03:37:42.608Z,21.1429
2024-02-10T03:38:42.618Z,20.5
2024-02-10T03:39:42.618Z,19.8571
2024-02-10T03:40:42.668Z,20.3571
2024-02-10T03:41:42.640Z,20.6429
2024-02-10T03:42:42.644Z,19.6429
2024-02-10T03:43:42.671Z,19.8571
2024-02-10T03:44:42.655Z,19.8571
2024-02-10T03:45:42.677Z,19.6429
2024-02-10T03:46:42.737Z,19.8571
2024-02-10T03:47:42.701Z,19.1429
2024-02-10T03:48:42.776Z,19.7143
2024-02-10T03:49:42.732Z,20.4286
2024-02-10T03:50:42.701Z,18.6429
2024-02-10T03:51:42.701Z,19.9286
2024-02-10T03:52:43.002Z,19.5
2024-02-10T03:53:42.727Z,19.8571
2024-02-10T03:54:42.738Z,20.8571
2024-02-10T03:55:42.782Z,20.9286
2024-02-10T03:56:42.736Z,19.6429
2024-02-10T03:57:42.741Z,19.7143
2024-02-10T03:58:43.180Z,19
2024-02-10T03:59:42.755Z,20.6429
2024-02-10T04:00:42.788Z,20.2143
2024-02-10T04:01:42.769Z,20.7143
2024-02-10T04:02:42.770Z,20.3571
2024-02-10T04:03:42.778Z,19.8571
2024-02-10T04:04:42.819Z,19.6429
2024-02-10T04:05:42.789Z,20.2143
2024-02-10T04:06:42.871Z,20.1429
2024-02-10T04:07:42.855Z,20.3571
2024-02-10T04:08:42.808Z,20.4286
2024-02-10T04:09:42.809Z,20.1429
2024-02-10T04:10:42.840Z,19.8571
2024-02-10T04:11:42.827Z,20.1429
2024-02-10T04:12:42.827Z,18.9286
2024-02-10T04:13:42.909Z,19.1429
2024-02-10T04:14:42.839Z,19.7143
2024-02-10T04:15:42.860Z,20.8571
2024-02-10T04:16:42.924Z,19.6429
2024-02-10T04:17:42.930Z,19.6429
2024-02-10T04:18:43.023Z,20.3571
2024-02-10T04:19:42.914Z,19.7143
2024-02-10T04:20:42.905Z,18.3571
2024-02-10T04:21:42.908Z,20
2024-02-10T04:22:42.978Z,19.6429
2024-02-10T04:23:42.917Z,19.9286
2024-02-10T04:24:42.965Z,20.2143
2024-02-10T04:25:42.952Z,20.2143
2024-02-10T04:26:42.937Z,19.7143
2024-02-10T04:27:42.942Z,19.5
2024-02-10T04:28:43.071Z,19.8571
2024-02-10T04:29:42.982Z,20.3571
2024-02-10T04:30:42.973Z,19.3571
2024-02-10T04:31:43.039Z,19.7143
2024-02-10T04:32:43.069Z,19.6429
2024-02-10T04:33:43.121Z,19.6429
2024-02-10T04:34:43.021Z,20.3571
2024-02-10T04:35:43.033Z,20.3571
2024-02-10T04:36:43.044Z,19.9286
2024-02-10T04:37:43.093Z,19.2143
2024-02-10T04:38:43.052Z,19.7143
2024-02-10T04:39:43.061Z,19.8571
2024-02-10T04:40:43.086Z,19.3571
2024-02-10T04:41:43.064Z,18.6429
2024-02-10T04:42:43.075Z,20
2024-02-10T04:43:43.135Z,19.8571
2024-02-10T04:44:43.084Z,19.3571
2024-02-10T04:45:43.095Z,18.3571
2024-02-10T04:46:43.146Z,19.4286
2024-02-10T04:47:43.169Z,20
2024-02-10T04:48:43.148Z,19.9286
2024-02-10T04:49:43.167Z,19.9286
2024-02-10T04:50:43.138Z,19.4286
2024-02-10T04:51:43.317Z,18.8571
2024-02-10T04:52:43.182Z,18.9286
2024-02-10T04:53:43.150Z,19.6429
2024-02-10T04:54:43.157Z,18.9286
2024-02-10T04:55:43.460Z,18.4286
2024-02-10T04:56:43.164Z,18.9286
2024-02-10T04:57:43.167Z,18.1429
2024-02-10T04:58:43.221Z,19.7143
2024-02-10T04:59:43.192Z,19.1429
2024-02-10T05:00:43.245Z,19.9286
2024-02-10T05:01:43.207Z,20.1429
2024-02-10T05:02:43.208Z,18.5
2024-02-10T05:03:43.259Z,18.8571
2024-02-10T05:04:43.227Z,20.1429
2024-02-10T05:05:43.370Z,18.4286
2024-02-10T05:06:43.218Z,18.4286
2024-02-10T05:07:43.274Z,20.2143
2024-02-10T05:08:43.304Z,19.9286
2024-02-10T05:09:43.227Z,19.2143
2024-02-10T05:10:43.277Z,18.1429
2024-02-10T05:11:43.252Z,19.7143
2024-02-10T05:12:43.265Z,18.6429
2024-02-10T05:13:43.282Z,18.5
2024-02-10T05:14:43.281Z,19.1429
2024-02-10T05:15:43.298Z,19.3571
2024-02-10T05:16:43.465Z,19.3571
2024-02-10T05:17:43.351Z,18.7143
2024-02-10T05:18:43.377Z,18.8571
2024-02-10T05:19:43.468Z,18.1429
2024-02-10T05:20:43.346Z,19.4286
2024-02-10T05:21:43.319Z,18.9286
2024-02-10T05:22:43.418Z,19.1429
2024-02-10T05:23:43.329Z,18.3571
2024-02-10T05:24:43.351Z,19.7143
2024-02-10T05:25:43.391Z,19.3571
2024-02-10T05:26:43.388Z,18.9286
2024-02-10T05:27:43.389Z,18.1429
2024-02-10T05:28:43.423Z,19
2024-02-10T05:29:43.399Z,19.2143
2024-02-10T05:30:43.422Z,18.8571
2024-02-10T05:31:43.464Z,18.3571
2024-02-10T05:32:43.497Z,19
2024-02-10T05:33:43.446Z,19.6429
2024-02-10T05:34:43.451Z,19.1429
2024-02-10T05:35:43.455Z,19.6429
2024-02-10T05:36:43.451Z,19.6429
2024-02-10T05:37:43.491Z,19.6429
2024-02-10T05:38:43.464Z,18
2024-02-10T05:39:43.476Z,17.6429
2024-02-10T05:40:43.520Z,18.3571
2024-02-10T05:41:43.498Z,18.7143
2024-02-10T05:42:43.512Z,18.9286
2024-02-10T05:43:43.565Z,18.3571
2024-02-10T05:44:43.527Z,18
2024-02-10T05:45:43.540Z,18.6429
2024-02-10T05:46:43.572Z,19.2143
2024-02-10T05:47:43.610Z,17.2143
2024-02-10T05:48:43.620Z,19.1429
2024-02-10T05:49:43.582Z,18.5
2024-02-10T05:50:43.563Z,18.2143
2024-02-10T05:51:43.577Z,18.6429
2024-02-10T05:52:43.630Z,18.5
2024-02-10T05:53:43.611Z,18.3571
2024-02-10T05:54:43.622Z,17.8571
2024-02-10T05:55:43.707Z,18.4286
2024-02-10T05:56:43.637Z,18.6429
2024-02-10T05:57:43.650Z,17.7143
2024-02-10T05:58:43.704Z,18.2143
2024-02-10T05:59:43.669Z,18
2024-02-10T06:00:43.705Z,18.5
2024-02-10T06:01:43.747Z,18.2143
2024-02-10T06:02:43.697Z,18.4286
2024-02-10T06:03:43.857Z,17
2024-02-10T06:04:43.788Z,18
2024-02-10T06:05:43.787Z,17.9286
2024-02-10T06:06:43.757Z,18.2143
2024-02-10T06:07:43.757Z,18.2143
2024-02-10T06:08:43.728Z,18
2024-02-10T06:09:43.739Z,17.6429
2024-02-10T06:10:43.777Z,17.5
2024-02-10T06:11:43.768Z,18.3571
2024-02-10T06:12:43.763Z,18
2024-02-10T06:13:43.923Z,17.4286
2024-02-10T06:14:43.773Z,17.5
2024-02-10T06:15:43.780Z,17.5
2024-02-10T06:16:43.827Z,18
2024-02-10T06:17:43.820Z,17.2143
2024-02-10T06:18:43.793Z,17.8571
2024-02-10T06:19:43.911Z,17.7143
2024-02-10T06:20:43.834Z,17.8571
2024-02-10T06:21:43.816Z,18
2024-02-10T06:22:43.881Z,18.2143
2024-02-10T06:23:43.852Z,17.3571
2024-02-10T06:24:43.857Z,18.2143
2024-02-10T06:25:44.293Z,17.5
2024-02-10T06:26:43.867Z,18
2024-02-10T06:27:43.874Z,17.7143
2024-02-10T06:28:43.924Z,18
2024-02-10T06:29:43.874Z,17.1429
2024-02-10T06:30:43.883Z,17.5
2024-02-10T06:31:43.912Z,18.1429
2024-02-10T06:32:43.914Z,17.5
2024-02-10T06:33:43.926Z,17.1429
2024-02-10T06:34:44.043Z,18
2024-02-10T06:35:43.925Z,17.3571
2024-02-10T06:36:43.945Z,18.8571
2024-02-10T06:37:44.087Z,17.2143
2024-02-10T06:38:43.945Z,18.8571
2024-02-10T06:39:43.953Z,18.4286
2024-02-10T06:40:44.050Z,18.2143
2024-02-10T06:41:43.963Z,18
2024-02-10T06:42:43.989Z,18.4286
2024-02-10T06:43:44.018Z,17.8571
2024-02-10T06:44:43.972Z,18.1429
2024-02-10T06:45:43.986Z,18.4286
2024-02-10T06:46:44.022Z,17.8571
2024-02-10T06:47:44.027Z,19.2143
2024-02-10T06:48:44.127Z,18.1429
2024-02-10T06:49:44.057Z,18.6429
2024-02-10T06:50:46.377Z,18.2143
2024-02-10T06:51:44.052Z,18.3571
2024-02-10T06:52:44.163Z,18.9286
2024-02-10T06:53:44.068Z,18.7143
2024-02-10T06:54:44.116Z,18.6429
2024-02-10T06:55:44.140Z,18.5
2024-02-10T06:56:44.095Z,18.4286
2024-02-10T06:57:44.085Z,18.2143
2024-02-10T06:58:44.121Z,18.9286
2024-02-10T06:59:44.087Z,18.3571
2024-02-10T07:00:44.137Z,18.2143
2024-02-10T07:01:44.246Z,17.8571
2024-02-10T07:02:44.206Z,18.7143
2024-02-10T07:03:44.175Z,18.2143
2024-02-10T07:04:44.337Z,18.5
2024-02-10T07:05:44.361Z,17.8571
2024-02-10T07:06:44.294Z,18.2143
2024-02-10T07:07:44.245Z,17.4286
2024-02-10T07:08:44.222Z,18.1429
2024-02-10T07:09:44.228Z,17.5
2024-02-10T07:10:44.289Z,16.8571
2024-02-10T07:11:44.249Z,16.5
2024-02-10T07:12:44.265Z,18
2024-02-10T07:13:44.274Z,16.7143
2024-02-10T07:14:44.266Z,16
2024-02-10T07:15:44.320Z,17
2024-02-10T07:16:44.370Z,15.5
2024-02-10T07:17:44.361Z,15.4286
2024-02-10T07:18:44.360Z,15.7143
2024-02-10T07:19:44.310Z,15
2024-02-10T07:20:44.325Z,16.2143
2024-02-10T07:21:44.315Z,15.4286
2024-02-10T07:22:44.376Z,15.2143
2024-02-10T07:23:44.327Z,16.1429
2024-02-10T07:24:44.333Z,14.8571
2024-02-10T07:25:44.397Z,15.4286
2024-02-10T07:26:44.349Z,16.2143
2024-02-10T07:27:44.345Z,15.3571
2024-02-10T07:28:44.384Z,14.8571
2024-02-10T07:29:44.344Z,15.3571
2024-02-10T07:30:44.363Z,15.3571
2024-02-10T07:31:44.410Z,15.5
2024-02-10T07:32:44.419Z,15.9286
2024-02-10T07:33:44.433Z,14.9286
2024-02-10T07:34:44.399Z,15.4286
2024-02-10T07:35:44.847Z,15.1429
2024-02-10T07:36:44.403Z,14.8571
2024-02-10T07:37:44.449Z,14.7143
2024-02-10T07:38:44.413Z,14.4286
2024-02-10T07:39:44.428Z,14.9286
2024-02-10T07:40:44.452Z,15.1429
2024-02-10T07:41:44.429Z,14
2024-02-10T07:42:44.434Z,15.4286
2024-02-10T07:43:44.455Z,14.6429
2024-02-10T07:44:44.482Z,14.9286
2024-02-10T07:45:44.464Z,14.4286
2024-02-10T07:46:44.538Z,14.1429
2024-02-10T07:47:44.507Z,14.9286
2024-02-10T07:48:44.538Z,14.5
2024-02-10T07:49:44.519Z,14.8571
2024-02-10T07:50:44.703Z,13.4286
2024-02-10T07:51:44.531Z,13.6429
2024-02-10T07:52:44.578Z,13.6429
2024-02-10T07:53:44.539Z,13.8571
2024-02-10T07:54:44.543Z,13.7143
2024-02-10T07:55:44.790Z,14.9286
2024-02-10T07:56:44.551Z,15.7143
2024-02-10T07:57:44.571Z,14.3571
2024-02-10T07:58:44.642Z,15.1429
2024-02-10T07:59:44.589Z,17.8571
2024-02-10T08:00:44.631Z,20
2024-02-10T08:01:44.650Z,21.7143
2024-02-10T08:02:44.615Z,23.6429
2024-02-10T08:03:44.661Z,23
2024-02-10T08:04:44.673Z,22
2024-02-10T08:05:44.763Z,20.1429
2024-02-10T08:06:44.649Z,20.5
2024-02-10T08:07:44.694Z,20
2024-02-10T08:08:44.665Z,17.7143
2024-02-10T08:09:44.665Z,18.2143
2024-02-10T08:10:44.737Z,17.8571
2024-02-10T08:11:44.670Z,16.5
2024-02-10T08:12:44.679Z,15.5
2024-02-10T08:13:44.743Z,15.7143
2024-02-10T08:14:44.704Z,15
2024-02-10T08:15:44.717Z,16
2024-02-10T08:16:44.767Z,15.6429
2024-02-10T08:17:44.787Z,13.8571
2024-02-10T08:18:44.784Z,15.6429
2024-02-10T08:19:44.775Z,14.5
2024-02-10T08:20:44.746Z,15.3571
2024-02-10T08:21:44.757Z,14.6429
2024-02-10T08:22:44.791Z,14.8571
2024-02-10T08:23:44.775Z,14
2024-02-10T08:24:44.760Z,14
2024-02-10T08:25:44.986Z,13.8571
2024-02-10T08:26:46.078Z,13
2024-02-10T08:27:44.802Z,13.4286
2024-02-10T08:28:44.851Z,12.9286
2024-02-10T08:29:44.836Z,13.4286
2024-02-10T08:30:44.840Z,12.2143
2024-02-10T08:31:44.871Z,12.4286
2024-02-10T08:32:44.972Z,12.1429
2024-02-10T08:33:44.955Z,12
2024-02-10T08:34:44.916Z,12
2024-02-10T08:35:44.857Z,11.6429
2024-02-10T08:36:44.871Z,12.1429
2024-02-10T08:37:44.954Z,12.1429
2024-02-10T08:38:44.888Z,11.8571
2024-02-10T08:39:44.921Z,12.5
2024-02-10T08:40:44.942Z,12.1429
2024-02-10T08:41:44.892Z,12
2024-02-10T08:42:44.913Z,12.3571
2024-02-10T08:43:44.960Z,13.8571
2024-02-10T08:44:44.917Z,14.7143
2024-02-10T08:45:44.928Z,13.4286
2024-02-10T08:46:44.967Z,14.1429
2024-02-10T08:47:45.009Z,14
2024-02-10T08:48:44.960Z,14.1429
2024-02-10T08:49:44.975Z,12.7143
2024-02-10T08:50:44.951Z,11.9286
2024-02-10T08:51:45.396Z,11.9286
2024-02-10T08:52:45.010Z,11.9286
2024-02-10T08:53:44.962Z,12.1429
2024-02-10T08:54:44.998Z,12
2024-02-10T08:55:45.019Z,11.5
2024-02-10T08:56:45.007Z,10.8571
2024-02-10T08:57:45.014Z,11.6429
2024-02-10T08:58:45.043Z,11.6429
2024-02-10T08:59:45.044Z,11.2143
2024-02-10T09:00:45.094Z,11.3571
2024-02-10T09:01:45.108Z,11.3571
2024-02-10T09:02:45.062Z,11.6429
2024-02-10T09:03:45.099Z,11.7143
2024-02-10T09:04:45.145Z,11.5
2024-02-10T09:05:45.098Z,11.7143
2024-02-10T09:06:45.200Z,11.6429
2024-02-10T09:07:45.124Z,13.3571
2024-02-10T09:08:45.097Z,13.4286
2024-02-10T09:09:45.109Z,12.6429
2024-02-10T09:10:45.318Z,11.4286
2024-02-10T09:11:45.133Z,10.5
2024-02-10T09:12:45.143Z,10.6429
2024-02-10T09:13:45.178Z,10.6429
2024-02-10T09:14:45.165Z,10.2143
2024-02-10T09:15:45.164Z,10.1429
2024-02-10T09:16:45.215Z,10.1429
2024-02-10T09:17:45.297Z,10.1429
2024-02-10T09:18:45.231Z,9.92857
2024-02-10T09:19:45.206Z,9.85714
2024-02-10T09:20:45.185Z,9.64286
2024-02-10T09:21:45.201Z,10
2024-02-10T09:22:45.269Z,9.42857
2024-02-10T09:23:45.222Z,9.71429
2024-02-10T09:24:45.216Z,9.92857
2024-02-10T09:25:45.251Z,9.92857
2024-02-10T09:26:45.251Z,9.35714
2024-02-10T09:27:45.230Z,9.92857
2024-02-10T09:28:45.245Z,9.64286
2024-02-10T09:29:45.249Z,9.21429
2024-02-10T09:30:45.251Z,8.64286
2024-02-10T09:31:45.285Z,8.35714
2024-02-10T09:32:45.280Z,8.71429
2024-02-10T09:33:45.311Z,8.35714
2024-02-10T09:34:45.288Z,9.14286
2024-02-10T09:35:45.301Z,8.85714
2024-02-10T09:36:45.311Z,8.85714
2024-02-10T09:37:45.316Z,8.92857
2024-02-10T09:38:45.317Z,8.85714
2024-02-10T09:39:45.317Z,9
2024-02-10T09:40:45.402Z,8.14286
2024-02-10T09:41:45.330Z,8.71429
2024-02-10T09:42:45.338Z,8.92857
2024-02-10T09:43:45.393Z,8.42857
2024-02-10T09:44:45.352Z,8.42857
2024-02-10T09:45:45.355Z,8.35714
2024-02-10T09:46:45.390Z,8.71429
2024-02-10T09:47:45.393Z,8.21429
2024-02-10T09:48:45.408Z,8.35714
2024-02-10T09:49:45.397Z,8.35714
2024-02-10T09:50:45.392Z,8.5
2024-02-10T09:51:45.427Z,8.35714
2024-02-10T09:52:45.426Z,9.5
2024-02-10T09:53:45.419Z,9.35714
2024-02-10T09:54:45.430Z,9.35714
2024-02-10T09:55:45.476Z,8.64286
2024-02-10T09:56:45.442Z,9.64286
2024-02-10T09:57:45.440Z,10.3571
2024-02-10T09:58:45.469Z,8.92857
2024-02-10T09:59:45.471Z,8.5
2024-02-10T10:00:45.458Z,7.92857
2024-02-10T10:01:45.471Z,8.71429
2024-02-10T10:02:45.504Z,8.85714
2024-02-10T10:03:45.517Z,8.92857
2024-02-10T10:04:45.507Z,9.14286
2024-02-10T10:05:45.510Z,8.64286
2024-02-10T10:06:45.504Z,8.64286
2024-02-10T10:07:45.570Z,8.85714
2024-02-10T10:08:45.516Z,8.85714
2024-02-10T10:09:45.519Z,8.92857
2024-02-10T10:10:45.567Z,9.5
2024-02-10T10:11:45.654Z,8.85714
2024-02-10T10:12:45.545Z,7.71429
2024-02-10T10:13:45.555Z,8.5
2024-02-10T10:14:45.550Z,9
2024-02-10T10:15:45.593Z,8.42857
2024-02-10T10:16:46.802Z,8.71429
2024-02-10T10:17:45.620Z,8.5
2024-02-10T10:18:45.646Z,8.5
2024-02-10T10:19:45.677Z,8.92857
2024-02-10T10:20:45.608Z,9
2024-02-10T10:21:45.616Z,9.21429
2024-02-10T10:22:45.671Z,8.71429
2024-02-10T10:23:45.626Z,8.42857
2024-02-10T10:24:45.632Z,8.35714
2024-02-10T10:25:45.700Z,8.85714
2024-02-10T10:26:45.644Z,8.35714
2024-02-10T10:27:45.641Z,9.71429
2024-02-10T10:28:45.665Z,11.7143
2024-02-10T10:29:45.701Z,11
2024-02-10T10:30:45.656Z,8.21429
2024-02-10T10:31:45.725Z,9.35714
2024-02-10T10:32:45.762Z,8.71429
2024-02-10T10:33:45.780Z,9.14286
2024-02-10T10:34:45.721Z,8.92857
2024-02-10T10:35:45.706Z,9.85714
2024-02-10T10:36:45.713Z,9.71429
2024-02-10T10:37:45.773Z,10.3571
2024-02-10T10:38:45.727Z,10.4286
2024-02-10T10:39:45.729Z,9.64286
2024-02-10T10:40:45.768Z,8.92857
2024-02-10T10:41:45.750Z,9.85714
2024-02-10T10:42:45.736Z,9.85714
2024-02-10T10:43:45.808Z,9.42857
2024-02-10T10:44:45.768Z,9.5
2024-02-10T10:45:45.770Z,10.6429
2024-02-10T10:46:45.802Z,15.9286
2024-02-10T10:47:45.858Z,14.5
2024-02-10T10:48:46.111Z,11.2143
2024-02-10T10:49:45.868Z,11.2143
2024-02-10T10:50:45.813Z,8.92857
2024-02-10T10:51:45.813Z,9.85714
2024-02-10T10:52:45.866Z,9.42857
2024-02-10T10:53:45.841Z,10.1429
2024-02-10T10:54:45.821Z,10.3571
2024-02-10T10:55:45.854Z,11.7143
2024-02-10T10:56:45.840Z,9.5
2024-02-10T10:57:45.846Z,10.9286
2024-02-10T10:58:45.893Z,10.3571
2024-02-10T10:59:45.886Z,10.4286
2024-02-10T11:00:45.923Z,10.3571
2024-02-10T11:01:45.938Z,9.92857
2024-02-10T11:02:46.196Z,12.3571
2024-02-10T11:03:45.949Z,10.1429
2024-02-10T11:04:45.917Z,10.2143
2024-02-10T11:05:45.978Z,9.92857
2024-02-10T11:06:46.077Z,9.42857
2024-02-10T11:07:45.945Z,10.3571
2024-02-10T11:08:45.929Z,9.5
2024-02-10T11:09:45.928Z,9.35714
2024-02-10T11:10:46.103Z,9.42857
2024-02-10T11:11:45.941Z,9.5
2024-02-10T11:12:45.969Z,9.85714
2024-02-10T11:13:46.045Z,8.92857
2024-02-10T11:14:45.997Z,9.21429
2024-02-10T11:15:46.001Z,8.92857
2024-02-10T11:16:46.033Z,9.14286
2024-02-10T11:17:46.196Z,8.42857
2024-02-10T11:18:46.209Z,7.92857
2024-02-10T11:19:46.046Z,8.85714
2024-02-10T11:20:46.046Z,8.5
2024-02-10T11:21:46.032Z,9.64286
2024-02-10T11:22:46.105Z,12
2024-02-10T11:23:46.039Z,12.1429
2024-02-10T11:24:46.044Z,11.2143
2024-02-10T11:25:46.091Z,8.71429
2024-02-10T11:26:46.104Z,8
2024-02-10T11:27:46.078Z,8.64286
2024-02-10T11:28:46.169Z,8.85714
2024-02-10T11:29:46.099Z,9.14286
2024-02-10T11:30:47.414Z,9
2024-02-10T11:31:46.165Z,8.85714
2024-02-10T11:32:46.211Z,8.85714
2024-02-10T11:33:46.208Z,8.35714
2024-02-10T11:34:46.143Z,8.71429
2024-02-10T11:35:46.146Z,7.92857
2024-02-10T11:36:46.221Z,8.42857
2024-02-10T11:37:46.324Z,7.71429
2024-02-10T11:38:46.149Z,8.85714
2024-02-10T11:39:46.180Z,8.42857
2024-02-10T11:40:46.254Z,8.5
2024-02-10T11:41:46.217Z,7.71429
2024-02-10T11:42:46.227Z,8.14286
2024-02-10T11:43:46.246Z,8.64286
2024-02-10T11:44:46.215Z,8.85714
2024-02-10T11:45:46.211Z,8.92857
2024-02-10T11:46:46.327Z,7.92857
2024-02-10T11:47:46.259Z,8.35714
2024-02-10T11:48:46.276Z,7.71429
2024-02-10T11:49:46.269Z,8.21429
2024-02-10T11:51:46.265Z,9.14286
2024-02-10T11:52:46.258Z,8.85714
2024-02-10T11:53:46.260Z,9.35714
2024-02-10T11:54:46.274Z,8.71429
2024-02-10T11:55:46.343Z,9
2024-02-10T11:56:46.299Z,8.92857
2024-02-10T11:57:46.312Z,8.64286
2024-02-10T11:58:46.508Z,10.8571
2024-02-10T11:59:46.307Z,11.5
2024-02-10T12:00:46.334Z,12.6429
2024-02-10T12:01:46.367Z,12.5
2024-02-10T12:02:46.335Z,11.2143
2024-02-10T12:03:46.410Z,10.1429
2024-02-10T12:04:46.428Z,10.2143
2024-02-10T12:05:46.468Z,10.3571
2024-02-10T12:06:46.396Z,9.21429
2024-02-10T12:07:46.389Z,9.21429
2024-02-10T12:08:46.374Z,9.5
2024-02-10T12:09:46.383Z,10.4286
2024-02-10T12:10:46.481Z,11.2143
2024-02-10T12:11:47.060Z,11.2143
2024-02-10T12:12:46.409Z,10.2143
2024-02-10T12:13:46.427Z,11.2143
2024-02-10T12:14:46.434Z,10.7143
2024-02-10T12:15:46.450Z,9.71429
2024-02-10T12:16:46.743Z,10.2143
2024-02-10T12:17:46.472Z,10.3571
2024-02-10T12:18:46.471Z,10.2143
2024-02-10T12:19:46.495Z,12.2143
2024-02-10T12:20:46.476Z,12.7143
2024-02-10T12:21:46.524Z,10.8571
2024-02-10T12:22:46.506Z,10
2024-02-10T12:23:46.505Z,9.5